Time;durP1;ratioP1;P1;durP2;ratioP2;P2;SDS_P1;SDS_P2;PMS_P1;PMS_P2;Temp;Humidity;BMP_temperature;BMP_pressure;BME280_temperature;BME280_humidity;BME280_pressure;Samples;Min_cycle;Max_cycle;Signal;HPM_P1;HPM_P2
2022/03/04 00:01:33;;;;;;;25.77;13.37;;;4.20;99.90;;;;;;4851817;29;20528;-82
2022/03/04 00:04:17;;;;;;;19.07;13.17;;;4.10;99.90;;;;;;4852935;29;20874;-80
2022/03/04 00:07:03;;;;;;;21.73;12.90;;;4.10;99.90;;;;;;4865293;29;20942;-81
2022/03/04 00:09:48;;;;;;;19.33;13.37;;;4.00;99.90;;;;;;4865351;29;20442;-82
2022/03/04 00:12:33;;;;;;;23.60;13.37;;;4.00;99.90;;;;;;4859968;29;20476;-80
2022/03/04 00:15:18;;;;;;;19.50;12.53;;;4.00;99.90;;;;;;4868602;29;20491;-80
2022/03/04 00:18:03;;;;;;;19.00;13.03;;;4.00;99.90;;;;;;4868335;29;20391;-79
2022/03/04 00:20:48;;;;;;;22.57;14.33;;;4.00;99.90;;;;;;4868352;29;20446;-78
2022/03/04 00:23:32;;;;;;;22.70;13.60;;;4.00;99.90;;;;;;4868610;29;20414;-79
2022/03/04 00:26:17;;;;;;;17.23;11.83;;;4.00;99.90;;;;;;4868113;29;20421;-78
2022/03/04 00:29:04;;;;;;;19.30;12.87;;;4.00;99.90;;;;;;4868027;29;20392;-79
2022/03/04 00:31:48;;;;;;;26.03;12.47;;;3.90;99.90;;;;;;4867835;29;20404;-78
2022/03/04 00:34:33;;;;;;;20.73;12.70;;;3.90;99.90;;;;;;4871811;29;20403;-80
2022/03/04 00:37:18;;;;;;;26.13;13.63;;;3.80;99.90;;;;;;4850535;29;20442;-81
2022/03/04 00:40:05;;;;;;;28.87;14.37;;;3.80;99.90;;;;;;4850103;29;20540;-80
2022/03/04 00:42:50;;;;;;;20.30;14.63;;;3.80;99.90;;;;;;4848439;29;20473;-81
2022/03/04 00:45:34;;;;;;;21.17;14.40;;;3.70;99.90;;;;;;4848266;29;20416;-80
2022/03/04 00:48:19;;;;;;;24.53;15.27;;;3.60;99.90;;;;;;4860002;29;20404;-80
2022/03/04 00:51:04;;;;;;;22.20;15.20;;;3.70;99.90;;;;;;4848451;29;20403;-80
2022/03/04 00:53:49;;;;;;;29.90;16.03;;;3.70;99.90;;;;;;4848357;29;20910;-80
2022/03/04 00:56:34;;;;;;;21.00;13.07;;;3.70;99.90;;;;;;4848507;29;20481;-80
2022/03/04 00:59:19;;;;;;;21.87;13.60;;;3.70;99.90;;;;;;4848939;29;20573;-81
2022/03/04 01:02:05;;;;;;;25.07;14.70;;;3.60;99.90;;;;;;4848383;29;20418;-80
2022/03/04 01:04:50;;;;;;;23.07;14.80;;;3.60;99.90;;;;;;4834699;29;20391;-80
2022/03/04 01:07:35;;;;;;;24.57;15.17;;;3.60;99.90;;;;;;4860853;29;20942;-80
2022/03/04 01:10:20;;;;;;;25.80;14.10;;;3.50;99.90;;;;;;4848049;29;20414;-80
2022/03/04 01:13:06;;;;;;;25.80;14.30;;;3.50;99.90;;;;;;4847930;29;20533;-81
2022/03/04 01:15:50;;;;;;;25.03;13.53;;;3.50;99.90;;;;;;4848246;29;20514;-81
2022/03/04 01:18:35;;;;;;;23.90;11.73;;;3.50;99.90;;;;;;4860693;29;20400;-81
2022/03/04 01:21:20;;;;;;;24.20;13.67;;;3.60;99.90;;;;;;4860811;29;20981;-81
2022/03/04 01:24:05;;;;;;;19.63;12.60;;;3.60;99.90;;;;;;4848043;29;20392;-81
2022/03/04 01:26:50;;;;;;;25.40;14.80;;;3.60;99.90;;;;;;4861055;29;20396;-81
2022/03/04 01:29:34;;;;;;;20.10;12.73;;;3.50;99.90;;;;;;4848459;29;20415;-80
2022/03/04 01:32:19;;;;;;;29.97;14.97;;;3.40;99.90;;;;;;4860675;29;20392;-81
2022/03/04 01:35:04;;;;;;;30.57;15.63;;;3.40;99.90;;;;;;4861026;29;20878;-81
2022/03/04 01:37:48;;;;;;;16.97;12.50;;;3.40;99.90;;;;;;4860337;29;20393;-81
2022/03/04 01:40:34;;;;;;;20.03;11.53;;;3.40;99.90;;;;;;4847742;29;20417;-81
2022/03/04 01:43:18;;;;;;;18.30;12.87;;;3.30;99.90;;;;;;4860119;29;20440;-81
2022/03/04 01:46:14;;;;;;;30.80;16.40;;;3.30;99.90;;;;;;4848470;29;20396;-81
2022/03/04 01:48:58;;;;;;;22.33;11.30;;;3.30;99.90;;;;;;4849034;29;20423;-81
2022/03/04 01:51:43;;;;;;;25.47;18.37;;;3.30;99.90;;;;;;4848414;29;20905;-80
2022/03/04 01:54:27;;;;;;;27.60;16.27;;;3.20;99.90;;;;;;4847369;29;20422;-81
2022/03/04 01:57:12;;;;;;;32.90;14.67;;;3.20;99.90;;;;;;4847795;29;20539;-81
2022/03/04 01:59:57;;;;;;;23.63;16.50;;;3.20;99.90;;;;;;4860389;29;20455;-81
2022/03/04 02:02:44;;;;;;;20.33;11.60;;;3.20;99.90;;;;;;4848212;29;20396;-82
2022/03/04 02:05:28;;;;;;;29.20;13.47;;;3.20;99.90;;;;;;4848132;29;20392;-82
2022/03/04 02:08:14;;;;;;;26.83;15.97;;;3.20;99.90;;;;;;4855926;29;20424;-81
2022/03/04 02:10:58;;;;;;;21.63;11.90;;;3.20;99.90;;;;;;4856156;29;20479;-81
2022/03/04 02:13:43;;;;;;;32.57;15.30;;;3.10;99.90;;;;;;4857035;29;20411;-81
2022/03/04 02:16:44;;;;;;;23.07;15.13;;;3.20;99.90;;;;;;4845381;29;20414;-82
2022/03/04 02:19:28;;;;;;;22.27;15.53;;;3.10;99.90;;;;;;4862003;29;20468;-81
2022/03/04 02:22:13;;;;;;;23.97;14.67;;;3.10;99.90;;;;;;4862390;29;20404;-81
2022/03/04 02:24:57;;;;;;;30.57;14.60;;;3.10;99.90;;;;;;4864400;29;20445;-81
2022/03/04 02:27:42;;;;;;;26.20;15.67;;;3.00;99.90;;;;;;4864720;29;20384;-81
2022/03/04 02:30:27;;;;;;;34.33;14.90;;;3.10;99.90;;;;;;4864815;29;20453;-81
2022/03/04 02:33:11;;;;;;;26.30;14.53;;;3.00;99.90;;;;;;4869042;29;20388;-80
2022/03/04 02:35:56;;;;;;;28.33;14.63;;;2.90;99.90;;;;;;4869074;29;20412;-80
2022/03/04 02:38:41;;;;;;;26.30;15.00;;;3.00;99.90;;;;;;4869133;29;20430;-81
2022/03/04 02:41:26;;;;;;;32.30;19.53;;;2.90;99.90;;;;;;4869113;29;20515;-81
2022/03/04 02:44:13;;;;;;;21.00;15.00;;;2.90;99.90;;;;;;4869300;29;20419;-78
2022/03/04 02:46:57;;;;;;;25.40;14.57;;;2.90;99.90;;;;;;4869279;29;20421;-80
2022/03/04 02:49:42;;;;;;;30.63;17.07;;;2.90;99.90;;;;;;4852797;29;20503;-80
2022/03/04 02:52:26;;;;;;;30.50;14.57;;;2.90;99.90;;;;;;4850487;29;20408;-80
2022/03/04 02:55:12;;;;;;;28.03;13.80;;;2.80;99.90;;;;;;4862322;29;20480;-80
2022/03/04 02:57:56;;;;;;;28.47;17.90;;;2.80;99.90;;;;;;4849961;29;20517;-80
2022/03/04 03:00:41;;;;;;;19.37;14.33;;;2.80;99.90;;;;;;4850346;29;20815;-80
2022/03/04 03:03:25;;;;;;;25.60;15.53;;;2.80;99.90;;;;;;4849854;29;20395;-80
2022/03/04 03:06:10;;;;;;;24.37;14.00;;;2.80;99.90;;;;;;4850525;29;20481;-80
2022/03/04 03:08:54;;;;;;;24.13;14.73;;;2.80;99.90;;;;;;4850331;29;20403;-80
2022/03/04 03:11:39;;;;;;;43.07;17.23;;;2.70;99.90;;;;;;4849889;29;20392;-80
2022/03/04 03:14:23;;;;;;;30.03;17.67;;;2.70;99.90;;;;;;4851449;29;20396;-80
2022/03/04 03:17:08;;;;;;;32.20;17.53;;;2.70;99.90;;;;;;4863475;29;20396;-81
2022/03/04 03:19:52;;;;;;;28.23;16.27;;;2.70;99.90;;;;;;4855370;29;20414;-81
2022/03/04 03:22:37;;;;;;;29.30;16.60;;;2.70;99.90;;;;;;4852606;29;20403;-82
2022/03/04 03:25:22;;;;;;;28.83;17.33;;;2.70;99.90;;;;;;4851833;29;20400;-81
2022/03/04 03:28:07;;;;;;;27.03;16.20;;;2.70;99.90;;;;;;4823344;29;20459;-81
2022/03/04 03:30:52;;;;;;;26.33;14.83;;;2.70;99.90;;;;;;4850234;29;20400;-82
2022/03/04 03:33:37;;;;;;;19.90;13.27;;;2.60;99.90;;;;;;4850373;29;20424;-82
2022/03/04 03:36:21;;;;;;;26.17;19.03;;;2.50;99.90;;;;;;4849836;29;20439;-80
2022/03/04 03:39:08;;;;;;;34.13;17.67;;;2.60;99.90;;;;;;4849411;29;20457;-81
2022/03/04 03:41:53;;;;;;;20.13;13.37;;;2.60;99.90;;;;;;4849385;29;20855;-82
2022/03/04 03:44:37;;;;;;;25.47;17.13;;;2.60;99.90;;;;;;4861824;29;20480;-82
2022/03/04 03:47:22;;;;;;;26.50;15.90;;;2.60;99.90;;;;;;4861739;29;20425;-82
2022/03/04 03:50:11;;;;;;;29.10;17.37;;;2.60;99.90;;;;;;4862141;29;20411;-82
2022/03/04 03:52:56;;;;;;;24.87;13.60;;;2.50;99.90;;;;;;4850341;29;20395;-82
2022/03/04 03:55:40;;;;;;;24.37;13.60;;;2.50;99.90;;;;;;4850826;29;20531;-83
2022/03/04 03:58:25;;;;;;;26.27;16.03;;;2.50;99.90;;;;;;4850666;29;20906;-82
2022/03/04 04:01:09;;;;;;;34.33;17.27;;;2.40;99.90;;;;;;4853742;29;20455;-81
2022/03/04 04:03:54;;;;;;;28.87;17.77;;;2.50;99.90;;;;;;4849604;29;20407;-81
2022/03/04 04:06:43;;;;;;;39.73;17.83;;;2.40;99.90;;;;;;4849689;29;20419;-82
2022/03/04 04:09:27;;;;;;;41.80;20.53;;;2.40;99.90;;;;;;4850118;29;20419;-80
2022/03/04 04:12:13;;;;;;;35.97;16.93;;;2.40;99.90;;;;;;4849750;29;20452;-81
2022/03/04 04:14:58;;;;;;;29.80;18.17;;;2.40;99.90;;;;;;4849837;29;20374;-79
2022/03/04 04:17:43;;;;;;;34.00;20.10;;;2.40;99.90;;;;;;4849260;29;20403;-81
2022/03/04 04:20:27;;;;;;;41.07;22.20;;;2.40;99.90;;;;;;4850292;29;20853;-82
2022/03/04 04:23:12;;;;;;;28.17;16.53;;;2.40;99.90;;;;;;4849263;29;20448;-81
2022/03/04 04:25:56;;;;;;;33.20;18.50;;;2.30;99.90;;;;;;4848554;29;20395;-81
2022/03/04 04:28:41;;;;;;;32.17;17.40;;;2.30;99.90;;;;;;4849730;29;20814;-81
2022/03/04 04:31:26;;;;;;;28.57;15.00;;;2.20;99.90;;;;;;4848941;29;20404;-80
2022/03/04 04:34:11;;;;;;;28.47;16.30;;;2.30;99.90;;;;;;4849079;29;20404;-81
2022/03/04 04:36:55;;;;;;;33.77;18.83;;;2.20;99.90;;;;;;4849250;29;20396;-81
2022/03/04 04:39:40;;;;;;;39.00;18.13;;;2.10;99.90;;;;;;4848461;29;20412;-80
2022/03/04 04:42:25;;;;;;;25.63;15.10;;;2.10;99.90;;;;;;4848823;29;20449;-80
2022/03/04 04:45:10;;;;;;;34.83;17.37;;;2.10;99.90;;;;;;4848288;29;20441;-80
2022/03/04 04:47:54;;;;;;;30.70;16.77;;;2.10;99.90;;;;;;4864119;29;20409;-80
2022/03/04 04:50:40;;;;;;;31.40;19.90;;;2.10;99.90;;;;;;4866823;29;20904;-80
2022/03/04 04:53:25;;;;;;;33.30;17.27;;;2.10;99.90;;;;;;4867099;29;20432;-80
2022/03/04 04:56:10;;;;;;;29.33;17.73;;;2.10;99.90;;;;;;4866858;29;20530;-80
2022/03/04 04:58:56;;;;;;;32.73;16.90;;;2.10;99.90;;;;;;4866912;29;20458;-79
2022/03/04 05:01:40;;;;;;;28.80;15.67;;;2.20;99.90;;;;;;4867155;29;20534;-81
2022/03/04 05:04:25;;;;;;;34.80;16.43;;;2.20;99.90;;;;;;4869282;29;20418;-81
2022/03/04 05:07:09;;;;;;;31.90;19.07;;;2.20;99.90;;;;;;4869318;29;20440;-81
2022/03/04 05:09:54;;;;;;;27.47;15.17;;;2.20;99.90;;;;;;4868602;29;20395;-81
2022/03/04 05:12:39;;;;;;;26.20;17.13;;;2.10;99.90;;;;;;4869469;29;20456;-83
2022/03/04 05:15:23;;;;;;;22.73;11.77;;;2.10;99.90;;;;;;4887610;29;20474;-81
2022/03/04 05:18:08;;;;;;;29.10;17.10;;;2.10;99.90;;;;;;4878700;29;20430;-81
2022/03/04 05:20:53;;;;;;;35.07;17.73;;;2.00;99.90;;;;;;4878741;29;20496;-80
2022/03/04 05:26:36;;;;;;;32.30;17.80;;;2.00;99.90;;;;;;4867124;29;20398;-81
2022/03/04 05:29:21;;;;;;;42.03;18.33;;;2.00;99.90;;;;;;4867041;29;20419;-81
2022/03/04 05:32:06;;;;;;;29.13;15.37;;;1.90;99.90;;;;;;4866901;29;20395;-81
2022/03/04 05:34:50;;;;;;;36.80;18.30;;;1.80;99.90;;;;;;4869639;29;20406;-79
2022/03/04 05:37:34;;;;;;;32.60;18.00;;;1.80;99.90;;;;;;4879784;29;20399;-81
2022/03/04 05:40:19;;;;;;;33.93;17.50;;;1.80;99.90;;;;;;4881444;29;20472;-81
2022/03/04 05:43:03;;;;;;;35.90;17.03;;;1.80;99.90;;;;;;4885092;29;20399;-81
2022/03/04 05:45:48;;;;;;;42.90;18.30;;;1.80;99.90;;;;;;4885047;29;20416;-81
2022/03/04 05:48:33;;;;;;;34.17;16.50;;;1.80;99.90;;;;;;4884639;29;20460;-82
2022/03/04 05:51:18;;;;;;;32.77;17.53;;;1.80;99.90;;;;;;4877473;29;20470;-81
2022/03/04 05:54:02;;;;;;;34.63;19.03;;;1.70;99.90;;;;;;4868378;29;20476;-82
2022/03/04 05:56:47;;;;;;;35.77;16.70;;;1.60;99.90;;;;;;4868252;29;20425;-82
2022/03/04 05:59:32;;;;;;;30.93;17.20;;;1.70;99.90;;;;;;4868625;29;20394;-82
2022/03/04 06:02:16;;;;;;;39.30;16.93;;;1.70;99.90;;;;;;4868477;29;20433;-82
2022/03/04 06:05:01;;;;;;;29.30;16.73;;;1.70;99.90;;;;;;4862677;29;20752;-82
2022/03/04 06:07:45;;;;;;;41.60;15.40;;;1.70;99.90;;;;;;4867533;29;20470;-82
2022/03/04 06:10:30;;;;;;;35.93;15.60;;;1.70;99.90;;;;;;4861782;29;20402;-82
2022/03/04 06:13:15;;;;;;;39.50;19.40;;;1.80;99.90;;;;;;4867632;29;20515;-82
2022/03/04 06:16:01;;;;;;;36.07;17.93;;;1.80;99.90;;;;;;4868452;29;20732;-81
2022/03/04 06:18:45;;;;;;;31.63;15.80;;;1.70;99.90;;;;;;4881909;29;20772;-80
2022/03/04 06:21:30;;;;;;;26.03;15.77;;;1.80;99.90;;;;;;4877731;29;20472;-80
2022/03/04 06:24:15;;;;;;;30.70;16.20;;;1.80;99.90;;;;;;4874767;29;20429;-81
2022/03/04 06:26:59;;;;;;;40.00;17.57;;;1.80;99.90;;;;;;4885727;29;20386;-81
2022/03/04 06:29:43;;;;;;;32.50;17.27;;;1.80;99.90;;;;;;4877044;29;20418;-81
2022/03/04 06:32:28;;;;;;;34.20;16.83;;;1.80;99.90;;;;;;4876522;29;20434;-81
2022/03/04 06:35:15;;;;;;;24.17;14.07;;;1.90;99.90;;;;;;4871993;29;20393;-81
2022/03/04 06:37:59;;;;;;;40.47;19.77;;;1.90;99.90;;;;;;4872187;29;20465;-81
2022/03/04 06:40:46;;;;;;;32.27;13.23;;;2.00;99.90;;;;;;4868362;29;20479;-81
2022/03/04 06:43:32;;;;;;;36.13;19.50;;;2.00;99.90;;;;;;4889910;29;20535;-81
2022/03/04 06:46:16;;;;;;;36.60;19.10;;;2.10;99.90;;;;;;4869673;29;20433;-81
2022/03/04 06:49:02;;;;;;;40.80;19.07;;;2.10;99.90;;;;;;4862019;29;20418;-81
2022/03/04 06:51:47;;;;;;;28.53;16.23;;;2.10;99.90;;;;;;4865756;29;20518;-81
2022/03/04 06:54:33;;;;;;;23.10;12.90;;;2.20;99.90;;;;;;4881446;29;20523;-81
2022/03/04 06:57:18;;;;;;;39.30;15.73;;;2.20;99.90;;;;;;4856110;29;20569;-80
2022/03/04 07:00:07;;;;;;;25.53;14.53;;;2.30;99.90;;;;;;4862093;29;20454;-80
2022/03/04 07:02:52;;;;;;;37.40;16.50;;;2.20;99.90;;;;;;4863935;29;20470;-81
2022/03/04 07:05:38;;;;;;;32.50;15.20;;;2.20;99.90;;;;;;4856989;29;20435;-80
2022/03/04 07:08:22;;;;;;;34.93;16.83;;;2.30;99.90;;;;;;4872847;29;20422;-81
2022/03/04 07:11:07;;;;;;;33.07;14.10;;;2.30;99.90;;;;;;4856679;29;20509;-81
2022/03/04 07:13:51;;;;;;;28.57;14.30;;;2.20;99.90;;;;;;4866316;29;20427;-82
2022/03/04 07:16:37;;;;;;;34.67;17.60;;;2.30;99.90;;;;;;4848174;29;20464;-81
2022/03/04 07:19:22;;;;;;;24.40;14.33;;;2.50;99.90;;;;;;4854239;29;20443;-80
2022/03/04 07:22:06;;;;;;;38.00;16.17;;;2.50;99.90;;;;;;4866514;29;20468;-81
2022/03/04 07:24:51;;;;;;;27.20;14.63;;;2.60;99.90;;;;;;4873905;29;20777;-80
2022/03/04 07:27:37;;;;;;;42.83;16.40;;;2.60;99.90;;;;;;4864149;29;20429;-83
2022/03/04 07:30:21;;;;;;;43.03;19.40;;;2.70;99.90;;;;;;4876177;29;20413;-81
2022/03/04 07:33:06;;;;;;;27.37;16.33;;;2.70;99.90;;;;;;4885702;29;20393;-80
2022/03/04 07:35:50;;;;;;;31.93;16.90;;;2.80;99.90;;;;;;4857814;29;20760;-81
2022/03/04 07:38:35;;;;;;;28.90;13.57;;;2.80;99.90;;;;;;4869445;29;20440;-80
2022/03/04 07:41:20;;;;;;;28.57;14.03;;;2.70;99.90;;;;;;4871335;29;21277;-80
2022/03/04 07:44:06;;;;;;;35.37;16.63;;;2.70;99.90;;;;;;4879168;29;20438;-80
2022/03/04 07:46:50;;;;;;;67.43;14.80;;;2.90;99.90;;;;;;4877225;29;20422;-82
2022/03/04 07:49:35;;;;;;;29.10;14.10;;;2.90;99.90;;;;;;4870274;29;20414;-81
2022/03/04 07:52:19;;;;;;;24.83;15.57;;;3.10;99.90;;;;;;4880008;29;20448;-81
2022/03/04 07:55:10;;;;;;;34.40;13.60;;;3.10;99.90;;;;;;4864869;29;20550;-82
2022/03/04 07:57:55;;;;;;;31.70;12.00;;;3.10;99.90;;;;;;4870887;29;20470;-82
2022/03/04 08:00:40;;;;;;;41.03;16.90;;;3.10;99.90;;;;;;4853821;29;20489;-81
2022/03/04 08:03:24;;;;;;;27.87;14.63;;;3.10;99.90;;;;;;4869925;29;20426;-82
2022/03/04 08:06:09;;;;;;;34.77;15.77;;;3.20;99.90;;;;;;4878214;29;20406;-81
2022/03/04 08:08:53;;;;;;;37.47;15.97;;;3.20;99.90;;;;;;4854252;29;20438;-81
2022/03/04 08:11:38;;;;;;;32.73;15.30;;;3.30;99.90;;;;;;4872717;29;20860;-81
2022/03/04 08:14:23;;;;;;;30.37;15.97;;;3.50;99.90;;;;;;4864645;29;20928;-82
2022/03/04 08:17:07;;;;;;;49.77;18.90;;;3.60;99.90;;;;;;4848727;29;20438;-81
2022/03/04 08:19:52;;;;;;;30.10;14.70;;;3.70;99.90;;;;;;4874673;29;20447;-79
2022/03/04 08:22:57;;;;;;;31.87;16.30;;;3.80;99.90;;;;;;4872385;29;20579;-82
2022/03/04 08:25:43;;;;;;;27.70;14.10;;;3.90;99.90;;;;;;4862749;29;20460;-82
2022/03/04 08:28:28;;;;;;;28.87;13.47;;;4.00;99.90;;;;;;4877891;29;20454;-82
2022/03/04 08:31:12;;;;;;;30.67;15.20;;;4.20;99.90;;;;;;4862287;29;20430;-82
2022/03/04 08:33:56;;;;;;;30.97;15.67;;;4.40;99.90;;;;;;4861418;29;20566;-82
2022/03/04 08:36:41;;;;;;;35.13;16.03;;;4.20;99.90;;;;;;4857693;29;20431;-82
2022/03/04 08:39:26;;;;;;;33.33;16.37;;;4.60;99.90;;;;;;4840035;29;20482;-82
2022/03/04 08:42:11;;;;;;;29.17;16.37;;;4.60;99.90;;;;;;4874212;29;20454;-82
2022/03/04 08:44:55;;;;;;;33.57;17.77;;;5.10;99.90;;;;;;4870922;29;20423;-82
2022/03/04 08:47:43;;;;;;;24.83;14.37;;;5.60;99.90;;;;;;4879763;29;20426;-82
2022/03/04 08:50:28;;;;;;;30.30;15.90;;;4.80;99.90;;;;;;4880731;29;20423;-82
2022/03/04 08:53:12;;;;;;;35.30;18.63;;;5.70;99.90;;;;;;4888322;29;20459;-82
2022/03/04 08:55:57;;;;;;;29.60;14.20;;;6.30;99.90;;;;;;4872827;29;20438;-82
2022/03/04 08:59:02;;;;;;;29.73;14.70;;;6.60;99.90;;;;;;4863325;29;20762;-82
2022/03/04 09:01:47;;;;;;;25.33;14.77;;;7.00;99.90;;;;;;4856020;29;20471;-82
2022/03/04 09:04:31;;;;;;;30.03;13.80;;;7.30;99.90;;;;;;4845835;29;20438;-81
2022/03/04 09:07:16;;;;;;;25.27;13.00;;;7.50;99.90;;;;;;4851770;29;20469;-82
2022/03/04 09:10:01;;;;;;;24.17;13.17;;;8.00;99.90;;;;;;4842813;29;20766;-80
2022/03/04 09:12:45;;;;;;;29.50;15.70;;;8.10;99.90;;;;;;4856341;29;20800;-80
2022/03/04 09:15:35;;;;;;;29.10;16.40;;;8.50;99.90;;;;;;4827431;29;20504;-79
2022/03/04 09:18:19;;;;;;;36.00;15.77;;;8.80;99.90;;;;;;4835879;29;20445;-81
2022/03/04 09:21:04;;;;;;;31.60;16.67;;;9.10;99.90;;;;;;4848128;29;20544;-82
2022/03/04 09:23:50;;;;;;;32.30;15.80;;;9.70;99.90;;;;;;4846432;29;20419;-83
2022/03/04 09:26:35;;;;;;;27.60;15.30;;;9.80;99.90;;;;;;4854623;29;20456;-81
2022/03/04 09:29:20;;;;;;;24.33;14.77;;;9.80;99.90;;;;;;4842582;29;20515;-82
2022/03/04 09:32:05;;;;;;;37.10;17.43;;;10.00;99.90;;;;;;4840399;29;20470;-80
2022/03/04 09:34:50;;;;;;;43.97;16.33;;;10.10;99.90;;;;;;4859187;29;20463;-81
2022/03/04 09:37:35;;;;;;;25.63;15.63;;;10.30;99.90;;;;;;4841876;29;20423;-82
2022/03/04 09:40:20;;;;;;;25.03;15.70;;;10.80;99.90;;;;;;4882681;29;20467;-81
2022/03/04 09:43:07;;;;;;;39.90;18.20;;;10.90;99.90;;;;;;4850752;29;20423;-81
2022/03/04 09:45:51;;;;;;;27.77;16.57;;;11.40;99.90;;;;;;4866095;29;20529;-81
2022/03/04 09:48:40;;;;;;;28.80;16.50;;;11.90;99.90;;;;;;4864396;29;20410;-82
2022/03/04 09:51:25;;;;;;;28.87;15.87;;;13.40;99.00;;;;;;4867422;29;21000;-80
2022/03/04 09:54:09;;;;;;;31.90;17.07;;;14.40;95.60;;;;;;4871703;29;20422;-81
2022/03/04 09:56:55;;;;;;;31.97;16.07;;;14.40;94.10;;;;;;4869838;29;20430;-81
2022/03/04 09:59:39;;;;;;;30.47;16.23;;;14.50;93.60;;;;;;4877097;29;20477;-82
2022/03/04 10:02:25;;;;;;;29.87;16.43;;;15.60;91.30;;;;;;4864810;29;20421;-81
2022/03/04 10:05:10;;;;;;;26.23;15.50;;;14.50;91.10;;;;;;4852365;29;20508;-82
2022/03/04 10:07:55;;;;;;;42.43;16.10;;;15.50;88.30;;;;;;4860042;29;20426;-81
2022/03/04 10:10:53;;;;;;;30.70;16.73;;;15.00;84.00;;;;;;4859636;29;20482;-81
2022/03/04 10:13:54;;;;;;;30.90;14.80;;;14.60;82.90;;;;;;4858957;29;20513;-80
2022/03/04 10:16:41;;;;;;;31.47;18.47;;;13.90;86.20;;;;;;4862366;29;20514;-82
2022/03/04 10:19:26;;;;;;;31.63;15.80;;;13.60;86.20;;;;;;4860665;29;20458;-82
2022/03/04 10:22:10;;;;;;;25.17;14.53;;;13.40;85.60;;;;;;4862562;29;20465;-82
2022/03/04 10:24:57;;;;;;;38.17;18.77;;;13.40;85.10;;;;;;4863413;29;20411;-82
2022/03/04 10:27:41;;;;;;;27.90;16.87;;;13.30;86.40;;;;;;4858757;29;20440;-81
2022/03/04 10:30:31;;;;;;;33.80;19.10;;;13.20;85.40;;;;;;4856888;29;20415;-80
2022/03/04 10:33:22;;;;;;;29.23;17.37;;;13.30;88.50;;;;;;4854985;29;20450;-81
2022/03/04 10:36:12;;;;;;;32.70;17.40;;;13.90;84.20;;;;;;4856786;29;20414;-81
2022/03/04 10:39:13;;;;;;;28.20;15.50;;;13.70;84.10;;;;;;4866219;29;20441;-81
2022/03/04 10:41:57;;;;;;;30.30;15.13;;;13.80;85.20;;;;;;4860180;29;20499;-81
2022/03/04 10:44:42;;;;;;;23.90;14.23;;;13.10;87.90;;;;;;4876227;29;20471;-81
2022/03/04 10:47:44;;;;;;;29.13;17.17;;;13.90;83.00;;;;;;4860692;29;20548;-81
2022/03/04 10:50:35;;;;;;;29.57;16.97;;;13.40;84.20;;;;;;4848580;29;20457;-81
2022/03/04 10:53:23;;;;;;;30.57;18.67;;;13.90;83.30;;;;;;4839664;29;20446;-82
2022/03/04 10:56:09;;;;;;;34.20;17.60;;;14.20;82.50;;;;;;4867212;29;20450;-81
2022/03/04 10:59:08;;;;;;;30.53;17.10;;;14.60;78.60;;;;;;4833302;29;20480;-84
2022/03/04 11:01:55;;;;;;;31.80;18.97;;;15.00;79.00;;;;;;4847961;29;21095;-82
2022/03/04 11:04:40;;;;;;;34.10;18.47;;;14.80;77.70;;;;;;4838384;29;20435;-83
2022/03/04 11:07:25;;;;;;;32.23;16.77;;;14.70;79.40;;;;;;4844022;29;20426;-82
2022/03/04 11:10:12;;;;;;;34.33;18.20;;;15.30;78.30;;;;;;4862128;29;20786;-81
2022/03/04 11:12:56;;;;;;;34.13;19.13;;;15.10;76.60;;;;;;4868099;29;20527;-83
2022/03/04 11:15:42;;;;;;;32.13;19.10;;;15.30;76.60;;;;;;4869334;29;20490;-82
2022/03/04 11:18:27;;;;;;;29.27;17.70;;;15.60;73.70;;;;;;4870619;29;20411;-81
2022/03/04 11:21:11;;;;;;;33.77;19.70;;;15.80;72.40;;;;;;4868990;29;20502;-81
2022/03/04 11:23:56;;;;;;;34.37;18.00;;;15.60;72.20;;;;;;4875348;29;20443;-81
2022/03/04 11:26:44;;;;;;;31.77;18.20;;;16.10;71.50;;;;;;4876494;29;20419;-82
2022/03/04 11:29:35;;;;;;;30.73;17.60;;;16.30;71.40;;;;;;4875399;29;20506;-81
2022/03/04 11:32:33;;;;;;;26.00;17.30;;;16.50;71.70;;;;;;4856910;29;20803;-80
2022/03/04 11:35:35;;;;;;;39.43;18.90;;;17.00;67.80;;;;;;4838614;29;20431;-83
2022/03/04 11:38:56;;;;;;;27.87;16.13;;;17.30;66.40;;;;;;4877253;29;20422;-80
2022/03/04 11:42:06;;;;;;;24.57;17.53;;;17.40;65.00;;;;;;4862211;29;20935;-81
2022/03/04 11:44:53;;;;;;;28.87;14.97;;;17.30;64.40;;;;;;4867356;29;20446;-83
2022/03/04 11:47:44;;;;;;;24.60;16.13;;;17.20;62.20;;;;;;4855972;29;20777;-80
2022/03/04 11:50:32;;;;;;;28.50;16.57;;;17.10;63.80;;;;;;4844311;29;20480;-82
2022/03/04 11:53:20;;;;;;;25.97;17.97;;;18.00;63.00;;;;;;4844681;29;20819;-83
2022/03/04 11:56:15;;;;;;;27.07;18.77;;;18.10;59.60;;;;;;4847390;29;20491;-83
2022/03/04 11:59:07;;;;;;;22.70;14.47;;;18.10;60.00;;;;;;4684775;29;4861093;-80
2022/03/04 12:01:57;;;;;;;23.77;14.63;;;17.50;60.30;;;;;;4871302;29;20210;-79
2022/03/04 12:04:41;;;;;;;15.63;12.50;;;16.00;58.50;;;;;;4853063;29;20423;-78
2022/03/04 12:07:36;;;;;;;25.67;13.83;;;14.70;57.80;;;;;;4854229;29;20508;-80
2022/03/04 12:10:23;;;;;;;20.37;12.37;;;11.40;61.50;;;;;;4852434;29;20438;-81
2022/03/04 12:13:13;;;;;;;15.07;10.93;;;12.70;63.80;;;;;;4851149;29;20435;-81
2022/03/04 12:16:03;;;;;;;21.27;12.30;;;13.70;63.40;;;;;;4855011;29;20734;-79
2022/03/04 12:18:48;;;;;;;19.00;13.17;;;15.70;59.50;;;;;;4867947;29;20560;-81
2022/03/04 12:21:37;;;;;;;17.63;12.03;;;15.90;58.80;;;;;;4851943;29;21029;-81
2022/03/04 12:24:32;;;;;;;18.73;11.73;;;15.70;57.00;;;;;;4850320;29;20508;-80
2022/03/04 12:27:38;;;;;;;19.00;12.60;;;14.20;60.90;;;;;;4847265;29;20500;-79
2022/03/04 12:30:23;;;;;;;16.60;12.60;;;12.90;60.50;;;;;;4853336;29;20511;-77
2022/03/04 12:33:08;;;;;;;17.30;12.00;;;12.00;65.50;;;;;;4834866;29;20449;-81
2022/03/04 12:36:00;;;;;;;19.83;11.80;;;12.70;62.50;;;;;;4862818;29;20420;-79
2022/03/04 12:38:47;;;;;;;15.67;11.87;;;12.10;63.50;;;;;;4857662;29;20428;-80
2022/03/04 12:41:33;;;;;;;17.27;11.10;;;10.30;65.40;;;;;;4844172;29;20470;-79
2022/03/04 12:44:18;;;;;;;21.83;11.77;;;9.10;71.00;;;;;;4836491;29;20429;-80
2022/03/04 12:47:04;;;;;;;17.37;11.77;;;9.30;75.10;;;;;;4873848;29;20976;-78
2022/03/04 12:49:50;;;;;;;19.87;11.57;;;9.50;73.60;;;;;;4851355;29;20439;-80
2022/03/04 12:52:34;;;;;;;16.50;10.47;;;9.80;73.30;;;;;;4849586;29;20854;-80
2022/03/04 12:55:19;;;;;;;15.53;9.93;;;8.80;76.10;;;;;;4855828;29;20442;-80
2022/03/04 12:58:04;;;;;;;21.40;11.13;;;8.80;76.20;;;;;;4873639;29;20567;-80
2022/03/04 13:01:02;;;;;;;15.93;9.77;;;8.20;79.60;;;;;;4853907;29;20463;-80
2022/03/04 13:03:50;;;;;;;18.10;9.93;;;7.90;79.40;;;;;;4849093;29;20426;-81
2022/03/04 13:06:34;;;;;;;17.13;11.10;;;8.50;78.90;;;;;;4845349;29;20412;-81
2022/03/04 13:09:19;;;;;;;18.40;11.90;;;8.80;80.30;;;;;;4848326;29;20847;-81
2022/03/04 13:12:05;;;;;;;15.47;9.77;;;9.00;82.20;;;;;;4847224;29;20440;-81
2022/03/04 13:14:51;;;;;;;15.00;9.60;;;8.50;79.10;;;;;;4847404;29;20949;-82
2022/03/04 13:17:36;;;;;;;19.70;9.67;;;8.90;79.80;;;;;;4843416;29;20903;-81
2022/03/04 13:20:21;;;;;;;15.07;9.37;;;8.10;79.70;;;;;;4845612;29;20463;-80
2022/03/04 13:23:07;;;;;;;14.97;9.17;;;8.10;82.00;;;;;;4845344;29;20472;-82
2022/03/04 13:25:52;;;;;;;15.20;10.30;;;8.30;81.60;;;;;;4857279;29;20468;-82
2022/03/04 13:28:56;;;;;;;9.87;6.47;;;8.50;84.40;;;;;;4846783;29;20985;-82
2022/03/04 13:31:41;;;;;;;11.63;8.33;;;8.20;81.70;;;;;;4865689;29;20478;-79
2022/03/04 13:34:29;;;;;;;14.83;8.10;;;9.30;82.50;;;;;;4855307;29;20987;-82
2022/03/04 13:37:15;;;;;;;13.10;8.30;;;10.30;76.80;;;;;;4846180;29;20457;-80
2022/03/04 13:40:04;;;;;;;14.10;8.33;;;10.70;75.10;;;;;;4849548;29;20518;-83
2022/03/04 13:42:53;;;;;;;18.00;8.37;;;10.80;75.70;;;;;;4846204;29;20576;-83
2022/03/04 13:45:46;;;;;;;14.37;7.90;;;10.40;75.10;;;;;;4869589;29;20434;-82
2022/03/04 13:48:30;;;;;;;13.53;7.90;;;10.20;79.20;;;;;;4829472;29;20401;-83
2022/03/04 13:51:15;;;;;;;11.90;7.83;;;10.90;75.80;;;;;;4873161;29;20477;-84
2022/03/04 13:54:19;;;;;;;15.47;8.20;;;11.00;69.40;;;;;;4863793;29;20438;-82
2022/03/04 13:57:05;;;;;;;10.53;7.53;;;11.50;70.60;;;;;;4871834;29;20609;-83
2022/03/04 13:59:50;;;;;;;15.83;8.73;;;10.50;72.20;;;;;;4878191;29;20441;-81
2022/03/04 14:02:49;;;;;;;12.07;8.20;;;9.70;73.50;;;;;;4877513;29;20492;-81
2022/03/04 14:05:40;;;;;;;11.43;7.53;;;9.80;74.90;;;;;;4863996;29;20435;-81
2022/03/04 14:08:25;;;;;;;11.50;6.70;;;10.90;75.60;;;;;;4868280;29;20824;-83
2022/03/04 14:11:12;;;;;;;7.03;6.13;;;11.30;72.50;;;;;;4866805;29;20461;-80
2022/03/04 14:13:56;;;;;;;14.70;7.00;;;11.00;72.20;;;;;;4830197;29;20455;-82
2022/03/04 14:16:41;;;;;;;15.00;9.57;;;11.40;71.80;;;;;;4860265;29;20553;-82